Time;durP1;ratioP1;P1;durP2;ratioP2;P2;SDS_P1;SDS_P2;PMS_P1;PMS_P2;Temp;Humidity;BMP_temperature;BMP_pressure;BME280_temperature;BME280_humidity;BME280_pressure;Samples;Min_cycle;Max_cycle;Signal;HPM_P1;HPM_P2
2023/10/10 00:02:04;;;;;;;;;;;;;;;11.54;100.00;101262.84;7400122;19;20048;-69
2023/10/10 00:04:33;;;;;;;26.50;15.43;;;;;;;11.54;100.00;101265.47;7401178;19;20338;-69
2023/10/10 00:07:06;;;;;;;29.27;17.27;;;;;;;11.55;100.00;101266.31;7401029;19;20045;-69
2023/10/10 00:09:35;;;;;;;30.85;17.70;;;;;;;11.58;100.00;101261.03;7401221;19;20017;-68
2023/10/10 00:12:06;;;;;;;26.02;16.90;;;;;;;11.58;100.00;101267.13;7398229;19;20502;-69
2023/10/10 00:14:34;;;;;;;23.27;16.35;;;;;;;11.60;100.00;101261.88;7401729;19;20014;-68
2023/10/10 00:17:08;;;;;;;26.98;16.13;;;;;;;11.62;100.00;101259.22;7398412;19;20039;-68
2023/10/10 00:19:43;;;;;;;27.40;15.88;;;;;;;11.63;100.00;101261.81;7401575;19;20018;-70
2023/10/10 00:22:25;;;;;;;32.42;17.05;;;;;;;11.65;100.00;101260.03;7401413;19;20007;-69
2023/10/10 00:24:53;;;;;;;28.48;17.15;;;;;;;11.67;100.00;101255.59;7401199;19;20014;-69
2023/10/10 00:27:23;;;;;;;31.55;16.65;;;;;;;11.71;100.00;101251.16;7399696;19;20007;-68
2023/10/10 00:29:53;;;;;;;26.75;15.68;;;;;;;11.75;100.00;101258.06;7400478;19;20018;-69
2023/10/10 00:32:26;;;;;;;27.45;15.55;;;;;;;11.78;100.00;101255.41;7400630;19;20030;-68
2023/10/10 00:34:55;;;;;;;27.38;14.77;;;;;;;11.81;100.00;101252.72;7400978;19;20129;-69
2023/10/10 00:37:25;;;;;;;30.35;15.30;;;;;;;11.85;100.00;101251.78;7397802;19;20015;-69
2023/10/10 00:39:56;;;;;;;27.48;15.57;;;;;;;11.89;100.00;101248.19;7400416;19;20090;-69
2023/10/10 00:42:37;;;;;;;33.22;15.70;;;;;;;11.95;100.00;101248.97;7400046;19;20014;-70
2023/10/10 00:45:09;;;;;;;28.23;15.15;;;;;;;11.97;100.00;101244.59;7400724;19;20010;-69
2023/10/10 00:47:43;;;;;;;28.15;14.27;;;;;;;12.02;100.00;101254.09;7399661;19;20014;-69
2023/10/10 00:50:16;;;;;;;29.92;14.98;;;;;;;12.07;100.00;101248.75;7400040;19;20014;-69
2023/10/10 00:52:48;;;;;;;22.73;13.32;;;;;;;12.09;100.00;101246.09;7398621;19;20017;-69
2023/10/10 00:55:21;;;;;;;24.70;13.88;;;;;;;12.13;100.00;101250.38;7400033;19;20011;-69
2023/10/10 00:57:52;;;;;;;28.65;14.93;;;;;;;12.16;100.00;101248.56;7398344;19;20078;-69
2023/10/10 01:00:25;;;;;;;22.58;13.10;;;;;;;12.20;100.00;101258.13;7399451;19;20006;-69
2023/10/10 01:03:06;;;;;;;25.67;13.80;;;;;;;12.25;100.00;101249.28;7400060;19;20017;-68
2023/10/10 01:05:39;;;;;;;26.23;13.45;;;;;;;12.28;100.00;101255.34;7397609;19;20015;-69
2023/10/10 01:08:08;;;;;;;25.23;13.38;;;;;;;12.30;100.00;101245.66;7397077;19;20033;-68
2023/10/10 01:10:43;;;;;;;24.88;12.07;;;;;;;12.33;100.00;101252.63;7398677;19;20070;-69
2023/10/10 01:13:13;;;;;;;23.70;12.23;;;;;;;12.36;100.00;101252.56;7400492;19;20066;-69
2023/10/10 01:15:43;;;;;;;23.92;11.60;;;;;;;12.39;100.00;101252.50;7399261;19;20010;-69
2023/10/10 01:18:15;;;;;;;21.77;12.25;;;;;;;12.42;100.00;101251.56;7397747;19;20015;-69
2023/10/10 01:20:49;;;;;;;22.77;12.32;;;;;;;12.44;100.00;101241.88;7398745;19;20508;-69
2023/10/10 01:23:26;;;;;;;23.13;13.00;;;;;;;12.46;100.00;101240.94;7398706;19;20006;-69
2023/10/10 01:26:05;;;;;;;20.10;11.45;;;;;;;12.48;100.00;101239.13;7399295;19;20015;-69
2023/10/10 01:28:36;;;;;;;24.45;12.10;;;;;;;12.49;100.00;101240.84;7396818;19;20477;-69
2023/10/10 01:31:10;;;;;;;20.40;11.63;;;;;;;12.50;100.00;101234.69;7398152;19;20011;-69
2023/10/10 01:33:42;;;;;;;21.80;11.93;;;;;;;12.53;100.00;101233.78;7398897;19;20022;-69
2023/10/10 01:36:19;;;;;;;19.58;10.70;;;;;;;12.54;100.00;101235.50;7396599;19;20017;-70
2023/10/10 01:39:23;;;;;;;17.17;10.63;;;;;;;12.56;100.00;101238.94;7396697;19;20015;-69
2023/10/10 01:41:52;;;;;;;20.52;11.43;;;;;;;12.56;100.00;101233.69;7396843;19;20014;-69
2023/10/10 01:44:22;;;;;;;20.90;11.23;;;;;;;12.58;100.00;101241.56;7395864;19;20027;-68
2023/10/10 01:46:52;;;;;;;18.27;9.45;;;;;;;12.60;100.00;101231.84;7398083;19;20015;-70
2023/10/10 01:49:28;;;;;;;18.35;10.18;;;;;;;12.61;100.00;101226.59;7396157;19;20010;-69
2023/10/10 01:52:01;;;;;;;15.80;9.82;;;;;;;12.63;100.00;101226.53;7395124;19;20010;-69
2023/10/10 01:54:40;;;;;;;;;;;;;;;12.63;100.00;101223.91;7398408;19;20014;-69
2023/10/10 01:57:16;;;;;;;19.63;9.23;;;;;;;12.64;100.00;101233.53;7397852;19;19919;-69
2023/10/10 01:59:44;;;;;;;20.83;11.30;;;;;;;12.63;100.00;101231.81;7398139;19;20010;-69
2023/10/10 02:02:16;;;;;;;19.45;12.50;;;;;;;12.65;100.00;101235.25;7397220;19;20368;-69
2023/10/10 02:04:45;;;;;;;20.08;13.77;;;;;;;12.66;100.00;101234.34;7397982;19;20018;-69
2023/10/10 02:07:22;;;;;;;20.20;12.70;;;;;;;12.67;100.00;101236.09;7394095;19;20353;-69
2023/10/10 02:10:11;;;;;;;17.55;10.52;;;;;;;12.68;100.00;101230.78;7397738;19;20019;-70
2023/10/10 02:12:44;;;;;;;18.52;9.75;;;;;;;12.69;100.00;101222.00;7396803;19;20481;-70
2023/10/10 02:15:15;;;;;;;15.50;9.10;;;;;;;12.70;100.00;101222.84;7398251;19;20037;-68
2023/10/10 02:17:50;;;;;;;14.02;8.90;;;;;;;12.71;100.00;101227.22;7396614;19;20007;-69
2023/10/10 02:20:33;;;;;;;13.90;8.40;;;;;;;12.72;100.00;101223.69;7395662;19;20014;-69
2023/10/10 02:23:23;;;;;;;13.57;8.48;;;;;;;12.71;100.00;101225.47;7397033;19;20014;-69
2023/10/10 02:25:53;;;;;;;17.92;7.90;;;;;;;12.73;100.00;101224.56;7394803;19;20544;-69
2023/10/10 02:28:42;;;;;;;14.23;7.28;;;;;;;12.72;100.00;101226.31;7394919;19;20014;-68
2023/10/10 02:31:12;;;;;;;13.40;7.97;;;;;;;12.73;100.00;101228.06;7395975;19;20346;-67
2023/10/10 02:33:48;;;;;;;11.82;7.53;;;;;;;12.74;100.00;101231.53;7394333;19;20017;-69
2023/10/10 02:36:30;;;;;;;13.63;7.43;;;;;;;12.75;100.00;101228.91;7394336;19;20014;-69
2023/10/10 02:39:18;;;;;;;13.00;7.38;;;;;;;12.76;100.00;101232.38;7394892;19;20025;-69
2023/10/10 02:41:48;;;;;;;12.48;6.82;;;;;;;12.76;100.00;101235.88;7396187;19;20006;-68
2023/10/10 02:44:26;;;;;;;12.93;7.20;;;;;;;12.77;100.00;101239.38;7396615;19;20045;-69
2023/10/10 02:46:55;;;;;;;19.10;7.22;;;;;;;12.79;100.00;101242.84;7394910;19;20014;-69
2023/10/10 02:49:29;;;;;;;12.13;5.93;;;;;;;12.78;100.00;101239.34;7395802;19;20519;-69
2023/10/10 02:52:06;;;;;;;8.98;6.25;;;;;;;12.80;100.00;101247.19;7394951;19;20024;-69
2023/10/10 02:54:53;;;;;;;12.57;6.40;;;;;;;12.81;100.00;101248.94;7394784;19;20026;-68
2023/10/10 02:57:39;;;;;;;10.93;6.75;;;;;;;12.81;100.00;101244.53;7399433;19;20028;-69
2023/10/10 03:00:27;;;;;;;12.25;6.13;;;;;;;12.81;100.00;101244.53;7395093;19;20018;-69
2023/10/10 03:02:58;;;;;;;10.90;5.65;;;;;;;12.83;100.00;101242.72;7395704;19;20015;-68
2023/10/10 03:05:43;;;;;;;11.00;6.05;;;;;;;12.80;100.00;101237.56;7396143;19;20018;-69
2023/10/10 03:08:18;;;;;;;8.85;5.35;;;;;;;12.80;100.00;101227.03;7393770;19;20010;-69
2023/10/10 03:11:00;;;;;;;11.65;5.18;;;;;;;12.81;100.00;101222.59;7393728;19;20362;-69
2023/10/10 03:13:45;;;;;;;8.95;5.00;;;;;;;12.80;100.00;101218.25;7395298;19;20536;-69
2023/10/10 03:16:40;;;;;;;8.65;4.55;;;;;;;12.79;100.00;101220.03;7395229;19;20477;-69
2023/10/10 03:19:32;;;;;;;10.57;5.13;;;;;;;12.78;100.00;101220.91;7396513;19;20011;-69
2023/10/10 03:27:54;;;;;;;6.03;3.42;;;;;;;12.76;100.00;101220.06;7406548;19;20018;-68
2023/10/10 03:30:33;;;;;;;8.50;3.67;;;;;;;12.75;100.00;101226.25;7408793;19;20469;-69
2023/10/10 03:33:16;;;;;;;7.55;4.00;;;;;;;12.76;100.00;101224.50;7407341;19;20015;-68
2023/10/10 03:38:43;;;;;;;9.20;3.63;;;;;;;12.75;100.00;101235.91;7407983;19;20019;-68
2023/10/10 03:41:26;;;;;;;5.18;3.50;;;;;;;12.75;100.00;101239.44;7408079;19;20014;-67
2023/10/10 05:23:47;;;;;;;2.47;2.05;;;;;;;12.73;100.00;101264.06;7398572;19;20098;-67
2023/10/10 05:26:18;;;;;;;4.97;2.88;;;;;;;12.74;100.00;101274.56;7398040;19;20021;-68
2023/10/10 05:28:48;;;;;;;5.63;2.65;;;;;;;12.73;100.00;101272.81;7395895;19;20085;-66
2023/10/10 05:31:19;;;;;;;6.72;2.85;;;;;;;12.74;100.00;101279.81;7397526;19;20007;-66
2023/10/10 05:33:50;;;;;;;5.78;3.05;;;;;;;12.73;100.00;101280.72;7398327;19;20078;-66
2023/10/10 05:36:24;;;;;;;4.78;2.63;;;;;;;12.73;100.00;101288.59;7396329;19;20014;-66
2023/10/10 05:38:52;;;;;;;5.93;2.70;;;;;;;12.74;100.00;101285.09;7395510;19;20379;-66
2023/10/10 05:41:22;;;;;;;5.38;3.20;;;;;;;12.74;100.00;101284.19;7397628;19;20073;-66
2023/10/10 05:43:51;;;;;;;6.00;3.60;;;;;;;12.74;100.00;101287.72;7396024;19;20023;-66
2023/10/10 05:46:19;;;;;;;8.60;3.58;;;;;;;12.75;100.00;101288.56;7395602;19;20018;-66
2023/10/10 05:48:49;;;;;;;9.20;4.43;;;;;;;12.75;100.00;101292.09;7395955;19;20018;-66
2023/10/10 05:51:17;;;;;;;7.00;3.40;;;;;;;12.76;100.00;101300.84;7397135;19;20014;-66
2023/10/10 05:53:48;;;;;;;5.38;3.95;;;;;;;12.77;100.00;101295.53;7396341;19;20485;-67
2023/10/10 05:56:17;;;;;;;6.53;3.45;;;;;;;12.78;100.00;101296.41;7396034;19;20014;-65
2023/10/10 05:58:47;;;;;;;6.20;4.25;;;;;;;12.78;100.00;101294.63;7395561;19;20031;-65
2023/10/10 06:01:17;;;;;;;11.25;4.45;;;;;;;12.79;100.00;101299.00;7397439;19;20015;-65
2023/10/10 06:03:46;;;;;;;7.20;3.95;;;;;;;12.80;100.00;101294.59;7396440;19;20111;-66
2023/10/10 06:06:15;;;;;;;9.95;4.43;;;;;;;12.81;100.00;101299.81;7396592;19;20413;-65
2023/10/10 06:08:44;;;;;;;6.55;3.88;;;;;;;12.81;100.00;101297.19;7394979;19;20036;-65
2023/10/10 06:11:16;;;;;;;8.65;3.85;;;;;;;12.85;100.00;101309.41;7396314;19;20424;-67
2023/10/10 06:13:45;;;;;;;9.15;4.78;;;;;;;12.87;100.00;101299.69;7397440;19;20018;-65
2023/10/10 06:16:15;;;;;;;7.03;4.43;;;;;;;12.90;100.00;101304.03;7396820;19;20014;-66
2023/10/10 06:18:49;;;;;;;6.80;4.72;;;;;;;12.91;100.00;101308.41;7395416;19;20033;-67
2023/10/10 06:21:25;;;;;;;6.32;4.47;;;;;;;12.93;100.00;101305.72;7397121;19;20010;-66
2023/10/10 06:23:53;;;;;;;7.75;5.15;;;;;;;12.93;100.00;101311.88;7395697;19;20090;-67
2023/10/10 06:26:24;;;;;;;8.48;4.55;;;;;;;12.96;100.00;101310.94;7396104;19;20010;-67
2023/10/10 06:28:53;;;;;;;8.02;5.20;;;;;;;12.97;100.00;101320.56;7395005;19;20019;-66
2023/10/10 06:31:33;;;;;;;9.48;5.95;;;;;;;12.99;100.00;101313.47;7394605;19;20014;-66
2023/10/10 06:34:19;;;;;;;7.80;5.70;;;;;;;13.01;100.00;101316.97;7395096;19;20015;-66
2023/10/10 06:36:47;;;;;;;7.97;5.65;;;;;;;13.04;100.00;101319.50;7396376;19;20037;-67
2023/10/10 06:39:32;;;;;;;7.65;6.25;;;;;;;13.07;100.00;101323.84;7395485;19;20066;-66
2023/10/10 06:42:03;;;;;;;7.78;5.70;;;;;;;13.07;100.00;101323.84;7396055;19;20369;-66
2023/10/10 06:44:35;;;;;;;10.00;6.03;;;;;;;13.10;100.00;101329.06;7394937;19;20015;-65
2023/10/10 06:47:08;;;;;;;9.55;5.88;;;;;;;13.11;100.00;101339.56;7394471;19;20093;-66
2023/10/10 06:49:53;;;;;;;10.77;6.93;;;;;;;13.14;100.00;101336.88;7396186;19;20010;-65
2023/10/10 06:52:23;;;;;;;11.75;6.68;;;;;;;13.17;100.00;101328.88;7393631;19;20437;-66
2023/10/10 06:54:56;;;;;;;9.65;6.05;;;;;;;13.20;100.00;101325.31;7391951;19;20014;-67
2023/10/10 06:57:38;;;;;;;10.98;6.28;;;;;;;13.23;100.00;101327.88;7393492;19;20014;-68
2023/10/10 07:00:27;;;;;;;9.90;6.63;;;;;;;13.27;100.00;101332.16;7394381;19;20011;-68
2023/10/10 07:02:57;;;;;;;9.30;5.95;;;;;;;13.31;100.00;101327.69;7393323;19;20074;-68
2023/10/10 07:05:26;;;;;;;8.35;5.95;;;;;;;13.36;100.00;101328.44;7394367;19;20011;-67
2023/10/10 07:08:12;;;;;;;12.38;6.57;;;;;;;13.39;100.00;101331.03;7393369;19;20014;-68
2023/10/10 07:10:42;;;;;;;10.55;6.63;;;;;;;13.41;100.00;101329.22;7395370;19;20037;-69
2023/10/10 07:13:18;;;;;;;7.80;5.65;;;;;;;13.43;100.00;101330.03;7393630;19;20010;-68
2023/10/10 07:15:54;;;;;;;9.88;6.60;;;;;;;13.46;100.00;101330.00;7392247;19;20010;-68
2023/10/10 07:18:25;;;;;;;8.75;6.55;;;;;;;13.51;100.00;101337.78;7393097;19;20025;-68
2023/10/10 07:21:06;;;;;;;10.80;6.88;;;;;;;13.54;100.00;101335.06;7397416;19;20019;-67
2023/10/10 07:23:53;;;;;;;11.60;6.97;;;;;;;13.58;100.00;101333.22;7394860;19;20047;-66
2023/10/10 07:26:23;;;;;;;9.70;7.25;;;;;;;13.58;100.00;101336.72;7394751;19;20017;-67
2023/10/10 07:28:56;;;;;;;8.07;6.80;;;;;;;13.64;100.00;101343.63;7392460;19;20378;-68
2023/10/10 07:31:34;;;;;;;9.68;7.40;;;;;;;13.67;100.00;101346.16;7392925;19;20358;-68
2023/10/10 07:34:15;;;;;;;9.45;8.48;;;;;;;13.69;100.00;101350.50;7395040;19;20022;-67
2023/10/10 07:36:44;;;;;;;9.35;7.15;;;;;;;13.70;100.00;101351.38;7394552;19;20017;-67
2023/10/10 07:41:53;;;;;;;9.32;7.15;;;;;;;13.81;100.00;101359.00;7394243;19;20078;-69
2023/10/10 07:44:25;;;;;;;8.82;7.50;;;;;;;13.82;100.00;101358.09;7393787;19;20416;-67
2023/10/10 07:49:35;;;;;;;13.65;7.55;;;;;;;13.91;100.00;101357.84;7394462;19;20017;-67
2023/10/10 07:52:02;;;;;;;9.98;7.32;;;;;;;13.96;100.00;101365.66;7393338;19;20082;-67
2023/10/10 07:54:38;;;;;;;8.57;7.68;;;;;;;14.01;100.00;101366.41;7391342;19;20011;-67
2023/10/10 07:57:11;;;;;;;9.48;7.68;;;;;;;14.06;100.00;101369.78;7391250;19;20011;-68
2023/10/10 07:59:42;;;;;;;12.68;8.38;;;;;;;14.09;100.00;101367.09;7394386;19;20433;-67
2023/10/10 08:02:24;;;;;;;11.70;8.35;;;;;;;14.11;100.00;101373.16;7393986;19;20062;-68
2023/10/10 08:04:53;;;;;;;11.98;8.00;;;;;;;14.12;100.00;101367.00;7393582;19;20029;-68
2023/10/10 08:07:23;;;;;;;12.02;7.68;;;;;;;14.15;100.00;101369.56;7396541;19;20082;-67
2023/10/10 08:10:11;;;;;;;8.90;7.95;;;;;;;14.18;100.00;101369.47;7400752;19;20095;-70
2023/10/10 08:12:40;;;;;;;10.85;8.40;;;;;;;14.22;100.00;101374.69;7397746;19;20011;-67
2023/10/10 08:17:58;;;;;;;9.63;7.65;;;;;;;14.28;100.00;101380.66;7396322;19;20051;-68
2023/10/10 08:21:08;;;;;;;9.18;7.25;;;;;;;14.31;100.00;101377.91;7401041;19;20015;-68
2023/10/10 08:23:25;;;;;;;16.00;7.68;;;;;;;14.36;100.00;101376.94;7399769;19;20006;-68
2023/10/10 08:25:54;;;;;;;7.95;7.05;;;;;;;14.38;100.00;101373.34;7399596;19;20361;-68
2023/10/10 08:28:23;;;;;;;9.82;6.80;;;;;;;14.38;100.00;101367.19;7398216;19;20031;-68
2023/10/10 08:30:55;;;;;;;10.00;6.60;;;;;;;14.41;100.00;101372.41;7397719;19;20082;-68
2023/10/10 08:33:26;;;;;;;13.20;6.90;;;;;;;14.42;100.00;101361.78;7398395;19;20077;-68
2023/10/10 08:35:54;;;;;;;9.00;7.05;;;;;;;14.45;100.00;101361.69;7397294;19;20358;-68
2023/10/10 08:38:23;;;;;;;9.85;6.10;;;;;;;14.51;100.00;101368.59;7398434;19;20078;-67
2023/10/10 08:40:57;;;;;;;7.30;6.50;;;;;;;14.56;100.00;101374.59;7399046;19;20347;-69
2023/10/10 08:43:28;;;;;;;;;;;;;;;14.58;100.00;101369.28;7400502;19;20015;-70
2023/10/10 08:46:03;;;;;;;8.65;6.07;;;;;;;14.60;100.00;101372.75;7397775;19;19911;-69
2023/10/10 08:48:33;;;;;;;7.00;5.88;;;;;;;14.61;100.00;101375.34;7397963;19;20029;-67
2023/10/10 08:51:04;;;;;;;7.63;6.03;;;;;;;14.63;100.00;101376.16;7400176;19;20494;-68
2023/10/10 08:54:11;;;;;;;9.00;6.18;;;;;;;14.65;100.00;101376.16;7397629;19;20018;-69
2023/10/10 08:56:41;;;;;;;6.43;5.80;;;;;;;14.68;100.00;101362.84;7396371;19;20365;-68
2023/10/10 08:59:11;;;;;;;11.43;6.15;;;;;;;14.71;100.00;101362.78;7397113;19;20021;-68
2023/10/10 09:01:43;;;;;;;6.75;5.35;;;;;;;14.75;100.00;101363.56;7396473;19;20078;-68
2023/10/10 09:04:18;;;;;;;6.90;5.47;;;;;;;14.76;100.00;101358.22;7399019;19;20025;-68
2023/10/10 09:06:58;;;;;;;11.75;5.03;;;;;;;14.75;100.00;101367.03;7399387;19;20021;-68
2023/10/10 09:09:37;;;;;;;9.40;5.50;;;;;;;14.80;100.00;101366.91;7396751;19;20044;-68
2023/10/10 09:12:12;;;;;;;7.43;4.97;;;;;;;14.82;100.00;101367.72;7399294;19;20014;-69
2023/10/10 09:14:49;;;;;;;6.40;4.97;;;;;;;14.83;99.68;101362.38;7396477;19;20450;-69
2023/10/10 09:17:34;;;;;;;9.25;5.32;;;;;;;14.79;98.75;101376.59;7397316;19;20025;-69
2023/10/10 09:20:17;;;;;;;6.07;4.30;;;;;;;14.78;98.88;101376.66;7396963;19;20011;-68
2023/10/10 09:22:51;;;;;;;6.33;4.60;;;;;;;14.75;99.15;101377.59;7396987;19;20014;-68
2023/10/10 09:25:25;;;;;;;7.00;4.28;;;;;;;14.75;100.00;101368.84;7399091;19;20041;-69
2023/10/10 09:28:04;;;;;;;6.35;4.30;;;;;;;14.76;99.53;101370.53;7397127;19;20014;-68
2023/10/10 09:30:34;;;;;;;6.38;4.00;;;;;;;14.78;100.00;101364.31;7398241;19;20375;-69
2023/10/10 09:33:22;;;;;;;6.90;4.00;;;;;;;14.82;98.68;101373.00;7397955;19;20007;-68
2023/10/10 09:35:53;;;;;;;5.10;3.95;;;;;;;14.82;98.78;101376.53;7397893;19;20311;-69
2023/10/10 09:38:26;;;;;;;8.75;3.60;;;;;;;14.85;98.40;101374.69;7394844;19;20014;-68
2023/10/10 09:41:10;;;;;;;9.13;4.40;;;;;;;14.86;98.81;101381.72;7397855;19;20015;-69
2023/10/10 09:43:50;;;;;;;7.80;4.07;;;;;;;14.87;98.90;101384.28;7398319;19;20011;-69
2023/10/10 09:46:25;;;;;;;6.88;3.90;;;;;;;14.91;98.21;101385.06;7397945;19;20018;-68
2023/10/10 09:54:29;;;;;;;7.15;4.18;;;;;;;14.99;97.61;101383.09;7395976;19;20167;-67
2023/10/10 09:56:59;;;;;;;5.93;3.95;;;;;;;15.03;97.71;101383.88;7397693;19;20031;-69
2023/10/10 09:59:31;;;;;;;4.43;3.67;;;;;;;15.08;97.09;101384.59;7397069;19;20074;-68
2023/10/10 10:02:05;;;;;;;5.00;3.90;;;;;;;15.12;96.83;101380.94;7395418;19;20015;-68
2023/10/10 10:04:41;;;;;;;3.75;3.40;;;;;;;15.16;96.30;101374.63;7397511;19;20011;-68
2023/10/10 10:07:42;;;;;;;4.53;2.95;;;;;;;15.22;96.17;101376.22;7396548;19;20010;-68
2023/10/10 10:10:21;;;;;;;6.85;3.35;;;;;;;15.25;95.28;101379.66;7397717;19;20086;-68
2023/10/10 10:13:19;;;;;;;8.93;5.53;;;;;;;15.28;95.72;101379.53;7396836;19;20018;-69
2023/10/10 10:16:19;;;;;;;3.67;3.15;;;;;;;15.29;94.28;101388.31;7397729;19;20017;-68
2023/10/10 10:18:52;;;;;;;4.88;3.00;;;;;;;15.28;94.11;101395.41;7394474;19;20022;-68
2023/10/10 10:21:31;;;;;;;6.25;3.28;;;;;;;15.27;94.22;101401.59;7394689;19;20017;-69
2023/10/10 10:24:15;;;;;;;4.95;3.10;;;;;;;15.27;93.95;101406.88;7394646;19;20011;-69
2023/10/10 10:26:44;;;;;;;5.13;3.40;;;;;;;15.27;94.24;101400.75;7396686;19;20014;-70
2023/10/10 10:29:29;;;;;;;6.47;3.40;;;;;;;15.31;94.08;101392.66;7391144;19;20381;-70
2023/10/10 10:32:02;;;;;;;4.07;2.92;;;;;;;15.36;93.67;101397.81;7396688;19;20529;-66
2023/10/10 10:34:35;;;;;;;4.55;3.22;;;;;;;15.39;93.17;101397.72;7394651;19;20046;-69
2023/10/10 10:37:13;;;;;;;5.40;2.95;;;;;;;15.43;92.29;101395.81;7396176;19;20033;-69
2023/10/10 10:40:24;;;;;;;5.65;3.15;;;;;;;15.45;92.90;101396.66;7395311;19;20370;-69
2023/10/10 10:42:34;;;;;;;3.05;2.55;;;;;;;15.53;93.39;101396.41;7395465;19;20010;-69
2023/10/10 10:45:26;;;;;;;7.22;3.38;;;;;;;15.59;92.58;101390.91;7395657;19;20018;-69
2023/10/10 10:47:59;;;;;;;5.95;2.90;;;;;;;15.63;92.64;101388.13;7394274;19;20025;-69
2023/10/10 10:50:46;;;;;;;4.80;2.53;;;;;;;15.70;92.38;101382.66;7395234;19;20014;-69
2023/10/10 10:53:35;;;;;;;4.40;2.83;;;;;;;15.73;92.27;101378.13;7395186;19;20074;-68
2023/10/10 10:59:19;;;;;;;4.25;2.92;;;;;;;15.83;91.58;101380.47;7391116;19;20033;-68
2023/10/10 11:01:58;;;;;;;5.25;2.53;;;;;;;15.86;90.87;101385.66;7395199;19;20029;-68
2023/10/10 11:04:42;;;;;;;6.22;2.67;;;;;;;15.85;90.76;101383.97;7394944;19;20428;-69
2023/10/10 11:07:16;;;;;;;6.10;3.25;;;;;;;15.85;90.66;101383.97;7393446;19;20017;-68
2023/10/10 11:09:52;;;;;;;5.45;2.35;;;;;;;15.87;89.96;101376.81;7394267;19;20366;-70
2023/10/10 11:12:31;;;;;;;5.13;3.13;;;;;;;15.88;89.61;101368.81;7395195;19;20022;-69
2023/10/10 11:15:05;;;;;;;7.57;3.58;;;;;;;15.90;89.96;101371.44;7392413;19;20014;-70
2023/10/10 11:17:38;;;;;;;4.22;2.92;;;;;;;15.94;90.01;101373.91;7393406;19;20011;-74
2023/10/10 11:23:06;;;;;;;5.60;2.72;;;;;;;16.04;89.47;101379.75;7392194;19;20349;-68
2023/10/10 11:25:46;;;;;;;4.18;2.47;;;;;;;16.08;88.56;101381.38;7393042;19;20015;-69
2023/10/10 11:28:21;;;;;;;6.53;2.60;;;;;;;16.09;88.32;101367.22;7393344;19;20051;-70
2023/10/10 11:30:52;;;;;;;4.00;2.85;;;;;;;16.11;88.75;101368.03;7391559;19;20013;-68
2023/10/10 11:33:55;;;;;;;4.82;2.70;;;;;;;16.14;87.55;101364.41;7392612;19;20014;-68
2023/10/10 11:36:29;;;;;;;5.65;4.22;;;;;;;16.13;87.49;101376.78;7393516;19;20011;-69
2023/10/10 11:39:16;;;;;;;5.47;2.83;;;;;;;16.13;87.71;101366.19;7392438;19;20007;-67
2023/10/10 11:41:50;;;;;;;5.43;3.42;;;;;;;16.12;87.27;101355.66;7397450;19;20031;-69
2023/10/10 11:44:23;;;;;;;6.70;3.08;;;;;;;16.13;87.35;101347.66;7399097;19;20070;-69
2023/10/10 11:47:02;;;;;;;4.38;3.10;;;;;;;16.16;87.39;101351.97;7400751;19;20011;-68
2023/10/10 11:49:32;;;;;;;5.07;2.92;;;;;;;16.23;87.39;101355.28;7401298;19;20021;-67
2023/10/10 11:52:00;;;;;;;5.53;2.80;;;;;;;16.27;87.09;101349.81;7400928;19;20041;-66
2023/10/10 11:54:29;;;;;;;4.35;2.55;;;;;;;16.33;86.50;101347.84;7397121;19;20078;-67
2023/10/10 11:57:00;;;;;;;7.30;4.80;;;;;;;16.37;85.99;101338.91;7400198;19;20017;-66
2023/10/10 11:59:32;;;;;;;5.90;3.00;;;;;;;16.42;85.45;101339.59;7400803;19;20030;-66
2023/10/10 12:02:16;;;;;;;5.32;3.22;;;;;;;16.45;84.90;101339.47;7400542;19;20011;-65
2023/10/10 12:04:46;;;;;;;3.33;2.60;;;;;;;16.49;84.64;101338.47;7399461;19;20011;-66
2023/10/10 12:07:18;;;;;;;3.55;2.92;;;;;;;16.51;84.60;101327.81;7400241;19;20114;-65
2023/10/10 12:09:48;;;;;;;3.65;3.00;;;;;;;16.53;83.88;101333.88;7397079;19;20014;-66
2023/10/10 12:12:20;;;;;;;5.38;2.58;;;;;;;16.51;84.11;101331.31;7397366;19;20015;-67
2023/10/10 12:14:50;;;;;;;5.85;2.63;;;;;;;16.51;84.42;101335.75;7398622;19;20036;-68
2023/10/10 12:17:20;;;;;;;4.35;3.05;;;;;;;16.53;84.58;101344.47;7398956;19;20074;-67
2023/10/10 12:19:49;;;;;;;6.90;3.03;;;;;;;16.55;84.55;101334.69;7399661;19;20096;-67
2023/10/10 12:22:17;;;;;;;4.57;3.58;;;;;;;16.57;83.60;101346.13;7399558;19;20019;-68
2023/10/10 12:24:47;;;;;;;4.45;3.03;;;;;;;16.58;83.71;101342.53;7398601;19;20389;-67
2023/10/10 12:27:15;;;;;;;4.40;3.65;;;;;;;16.58;83.93;101338.09;7399099;19;20037;-68
2023/10/10 12:29:47;;;;;;;5.72;3.40;;;;;;;16.62;84.42;101328.25;7396755;19;20498;-67
2023/10/10 12:32:22;;;;;;;6.13;4.50;;;;;;;16.68;84.21;101328.03;7396421;19;20031;-67
2023/10/10 12:34:50;;;;;;;5.60;3.53;;;;;;;16.74;83.68;101321.63;7397078;19;20011;-69
2023/10/10 12:37:23;;;;;;;6.88;3.80;;;;;;;16.75;83.79;101308.31;7396964;19;20015;-68
2023/10/10 12:39:52;;;;;;;4.78;4.15;;;;;;;16.77;83.74;101318.88;7397882;19;20025;-68
2023/10/10 12:42:20;;;;;;;8.95;3.50;;;;;;;16.75;83.43;101321.56;7400731;19;20036;-68
2023/10/10 12:44:51;;;;;;;6.28;3.67;;;;;;;16.72;83.75;101300.50;7399944;19;20015;-68
2023/10/10 12:47:21;;;;;;;6.35;4.95;;;;;;;16.68;84.48;101293.59;7396697;19;20074;-66
2023/10/10 12:49:50;;;;;;;5.47;3.70;;;;;;;16.66;85.27;101284.81;7396708;19;20481;-68
2023/10/10 12:52:19;;;;;;;5.20;3.60;;;;;;;16.65;86.04;101288.41;7397659;19;20073;-67
2023/10/10 12:54:57;;;;;;;6.20;3.38;;;;;;;16.65;85.83;101290.19;7396500;19;20011;-65
2023/10/10 12:57:33;;;;;;;4.32;3.17;;;;;;;16.63;86.64;101282.31;7397519;19;20033;-68
2023/10/10 13:02:45;;;;;;;4.73;3.83;;;;;;;16.63;87.11;101287.59;7396295;19;20007;-67
2023/10/10 13:05:15;;;;;;;4.95;4.00;;;;;;;16.68;87.42;101284.75;7398849;19;20024;-66
2023/10/10 13:07:51;;;;;;;3.92;2.78;;;;;;;16.76;87.58;101296.78;7396827;19;20018;-68
2023/10/10 13:10:26;;;;;;;8.68;6.05;;;;;;;16.87;87.48;101295.50;7397156;19;20019;-67
2023/10/10 13:12:55;;;;;;;9.13;3.67;;;;;;;16.93;87.09;101287.34;7397400;19;20037;-67
2023/10/10 13:15:47;;;;;;;4.82;3.15;;;;;;;16.98;86.71;101288.03;7394748;19;20011;-67
2023/10/10 13:18:19;;;;;;;5.50;3.42;;;;;;;17.08;86.70;101293.81;7394851;19;20010;-68
2023/10/10 13:20:50;;;;;;;3.78;3.38;;;;;;;17.19;86.70;101296.91;7397137;19;20041;-67
2023/10/10 13:23:19;;;;;;;5.75;2.67;;;;;;;17.29;85.66;101294.75;7397052;19;20028;-68
2023/10/10 13:25:48;;;;;;;3.85;3.05;;;;;;;17.37;85.44;101292.63;7397206;19;20031;-68
2023/10/10 13:28:20;;;;;;;5.72;3.70;;;;;;;17.51;84.03;101285.88;7395985;19;20018;-67
2023/10/10 13:30:51;;;;;;;5.40;3.80;;;;;;;17.59;83.07;101284.63;7396655;19;20037;-68
2023/10/10 13:33:20;;;;;;;3.72;2.70;;;;;;;17.69;82.54;101285.13;7396254;19;20085;-67
2023/10/10 13:35:48;;;;;;;4.32;2.60;;;;;;;17.72;81.72;101290.28;7395225;19;20375;-68
2023/10/10 13:38:17;;;;;;;4.20;3.20;;;;;;;17.77;81.29;101291.84;7396667;19;20020;-68
2023/10/10 13:40:48;;;;;;;3.50;3.20;;;;;;;17.82;81.11;101292.53;7397828;19;20078;-68
2023/10/10 13:43:19;;;;;;;4.55;2.42;;;;;;;17.79;80.25;101300.63;7395731;19;20011;-68
2023/10/10 13:45:51;;;;;;;3.25;2.22;;;;;;;17.77;80.76;101291.84;7395111;19;20017;-68
2023/10/10 13:48:23;;;;;;;3.17;2.75;;;;;;;17.80;80.48;101289.94;7395581;19;20018;-67
2023/10/10 13:50:56;;;;;;;6.88;4.80;;;;;;;17.84;80.67;101288.03;7397155;19;20011;-68
2023/10/10 13:53:24;;;;;;;3.42;2.67;;;;;;;17.95;80.18;101292.91;7397400;19;20014;-67
2023/10/10 13:55:53;;;;;;;3.10;2.30;;;;;;;18.03;79.85;101293.41;7394804;19;20097;-68
2023/10/10 13:58:22;;;;;;;3.28;2.40;;;;;;;18.09;79.43;101290.47;7394852;19;20586;-69
2023/10/10 14:00:55;;;;;;;2.47;1.90;;;;;;;18.17;79.48;101298.09;7394798;19;20031;-68
2023/10/10 14:03:35;;;;;;;3.95;2.00;;;;;;;18.22;78.81;101290.78;7394680;19;20014;-68